LGKOLCLK

Guest
Details From LGKO - KOS
To LCLK - Larnaca
Flight Number -
Tags generated
Created
Modified
Stats Distance 340 nm / 629 km
Max Altitude 35,000 ft / 10,668 m
Waypoints 7
Social Downloads 6
Likes 0
Share VATSIM

Download

Looking for another format? Having issues loading an existing format? Contact us
Advertisement - Login to hide

Notes

Basic altitude profile: - Ascent Rate: 2500ft/min - Ascent Speed: 250kts - Cruise Altitude: 35000ft - Cruise Speed: 420kts - Descent Rate: 1500ft/min - Descent Speed: 250kts Options: - Use NATs: yes - Use PACOTS: yes - Use low airways: yes - Use high airways: yes

Route

LGKO RDS UM601 DASNI M601 DAROS LCLK

ID Type Via Altitude Latitude Longitude Leg Dist Tot Dist Heading (true) Name
O LGKO APT - 0 ft / 0 m 36.79440˚ 27.09076˚ - 0 nm - KOS
RDS VOR - 19,600 ft / 5,974 m 36.34111˚ 28.08250˚ 55 nm 55 nm 119° / 120° RODOS VOR-DME
EXELA FIX UM601 (AWY-HI) 35,000 ft / 10,668 m 35.95556˚ 29.54778˚ 74 nm 129 nm 108° / 108° -
EVENO FIX UM601 (AWY-HI) 35,000 ft / 10,668 m 35.83333˚ 30.00000˚ 23 nm 152 nm 108° / 109° -
DASNI FIX UM601 (AWY-HI) 29,600 ft / 9,022 m 35.61667˚ 30.85000˚ 43 nm 196 nm 107° / 108° -
DAROS FIX M601 (AWY-LO) 8,000 ft / 2,438 m 35.01167˚ 33.14833˚ 118 nm 314 nm 107° / 109° -
O LCLK APT - 0 ft / 0 m 34.87512˚ 33.62483˚ 24 nm 339 nm 109° / 109° Larnaca

Altitude Profile

Advertisement - Login to hide

Weather


0- 5 10 15 20 25 30 35+ Temperature / ° C

Clouds and Precipitation
Forecast for 2017-12-13 12:00 UTC. Updated 2 hours ago

Ground ~20,000 ft ~40,000 ft Winds

LGKO

Details ICAO LGKO (KGS)
Name KOS
Region Greece
Timezone Europe/Athens (UTC+2.0)
Stats Elevation 412 ft / 126 m (AMSL)
Location 36.794403° 27.090764°
Runways 1
Magnetic Variation 4.723° E

METAR

LGKO 131020Z 32005KT 9999 FEW016 BKN025 17/13 Q1021

Decode

TAF

TAF LGKO 130500Z 1306/1406 29010KT 9999 FEW015 SCT050

Decode

Departure Runways

ID Width Length Bearing (true) Bearing (mag) Surface Threshold Offset Overrun Length
14 148 ft / 45 m 7,923 ft / 2,415 m 148.29° 143.57° Asphalt 0 ft / 0 m 240 ft / 73 m
32 148 ft / 45 m 7,923 ft / 2,415 m 328.30° 323.58° Asphalt 0 ft / 0 m 205 ft / 62 m

LCLK

Details ICAO LCLK (LCA)
Name Larnaca
Region Cyprus
Timezone Asia/Nicosia (UTC+2.0)
Stats Elevation 8 ft / 2 m (AMSL)
Location 34.875115° 33.624832°
Runways 1
Magnetic Variation 4.990° E

METAR

LCLK 131030Z 34012KT 9999 FEW035 22/11 Q1016 NOSIG

Decode

TAF

TAF LCLK 130530Z 1306/1406 32009KT 9999 FEW030= TAF LCPH 130530Z 1306/1406 03006KT 9999 FEW030 BECMG 1306/1309 30015KT BECMG 1316/1320 01007KT

Decode

Destination Runways

ID Width Length Bearing (true) Bearing (mag) Surface Threshold Offset Overrun Length
04 148 ft / 45 m 9,771 ft / 2,978 m 45.15° 40.16° Asphalt 0 ft / 0 m 210 ft / 64 m
22 148 ft / 45 m 9,771 ft / 2,978 m 225.17° 220.18° Asphalt 575 ft / 175 m 0 ft / 0 m

Approach Navaids

Runway Type Ident Frequency Range Bearing (true) Bearing (mag) Slope Elevation
22 Localiser ILC 110.30 MHz 18 nm / 33 km 225.17° 220.18° - 8 ft / 2 m (AMSL)
22 Glidescope ILC 110.30 MHz 10 nm / 19 km 225.16° 220.17° 2.75° 24 ft / 7 m (AMSL)
22 DME ILC 110.30 MHz 18 nm / 33 km - - - 20 ft / 6 m (AMSL)

Popular Alternatives